createdAt,value
2018-08-25T00:00:42.245Z,16.47
2018-08-25T00:03:10.654Z,16.50
2018-08-25T00:05:39.076Z,16.51
2018-08-25T00:08:07.509Z,16.54
2018-08-25T00:10:35.966Z,16.48
2018-08-25T00:13:04.404Z,16.41
2018-08-25T00:15:32.845Z,16.35
2018-08-25T00:18:01.238Z,16.42
2018-08-25T00:20:29.666Z,16.43
2018-08-25T00:22:58.086Z,16.41
2018-08-25T00:25:26.540Z,16.43
2018-08-25T00:27:54.965Z,16.24
2018-08-25T00:30:28.689Z,16.21
2018-08-25T00:32:57.100Z,16.20
2018-08-25T00:35:25.553Z,16.17
2018-08-25T00:37:54.014Z,16.16
2018-08-25T00:40:22.465Z,16.15
2018-08-25T00:42:50.896Z,16.23
2018-08-25T00:45:19.345Z,16.19
2018-08-25T00:47:47.876Z,16.13
2018-08-25T00:50:16.258Z,16.13
2018-08-25T00:52:44.715Z,16.10
2018-08-25T00:55:13.326Z,16.10
2018-08-25T00:57:41.725Z,16.10
2018-08-25T01:00:10.189Z,16.00
2018-08-25T01:02:38.631Z,16.06
2018-08-25T01:05:07.241Z,15.99
2018-08-25T01:07:35.693Z,16.01
2018-08-25T01:10:04.178Z,15.94
2018-08-25T01:12:32.578Z,15.93
2018-08-25T01:15:00.981Z,15.97
2018-08-25T01:17:29.405Z,15.89
2018-08-25T01:19:57.821Z,15.94
2018-08-25T01:22:26.274Z,15.93
2018-08-25T01:24:54.713Z,15.95
2018-08-25T01:27:23.121Z,15.88
2018-08-25T01:29:51.550Z,15.92
2018-08-25T01:32:19.933Z,15.90
2018-08-25T01:34:48.576Z,15.89
2018-08-25T01:37:16.987Z,15.85
2018-08-25T01:39:45.413Z,15.84
2018-08-25T01:42:13.797Z,15.80
2018-08-25T01:44:42.219Z,15.73
2018-08-25T01:47:10.705Z,15.79
2018-08-25T01:49:39.169Z,15.74
2018-08-25T01:52:07.679Z,15.72
2018-08-25T01:54:36.120Z,15.71
2018-08-25T01:57:04.578Z,15.75
2018-08-25T01:59:33.118Z,15.68
2018-08-25T02:02:01.543Z,15.66
2018-08-25T02:04:29.937Z,15.65
2018-08-25T02:06:58.375Z,15.64
2018-08-25T02:09:26.738Z,15.58
2018-08-25T02:11:55.101Z,15.59
2018-08-25T02:14:23.456Z,15.67
2018-08-25T02:16:51.909Z,15.63
2018-08-25T02:19:20.286Z,15.61
2018-08-25T02:21:48.661Z,15.63
2018-08-25T02:24:17.110Z,15.61
2018-08-25T02:26:45.487Z,15.57
2018-08-25T02:29:13.864Z,15.64
2018-08-25T02:31:42.284Z,15.62
2018-08-25T02:34:10.645Z,15.58
2018-08-25T02:36:39.066Z,15.64
2018-08-25T02:39:11.335Z,15.58
2018-08-25T02:41:39.755Z,15.68
2018-08-25T02:44:08.125Z,15.60
2018-08-25T02:46:36.606Z,15.44
2018-08-25T02:49:05.108Z,15.37
2018-08-25T02:51:33.492Z,15.25
2018-08-25T02:54:01.849Z,15.07
2018-08-25T02:56:30.226Z,14.89
2018-08-25T02:58:58.577Z,14.80
2018-08-25T03:01:26.966Z,14.70
2018-08-25T03:03:55.314Z,14.70
2018-08-25T03:06:23.713Z,14.64
2018-08-25T03:08:52.070Z,14.62
2018-08-25T03:11:20.472Z,14.64
2018-08-25T03:13:48.955Z,14.68
2018-08-25T03:16:17.266Z,14.73
2018-08-25T03:18:45.690Z,14.69
2018-08-25T03:21:14.090Z,14.68
2018-08-25T03:23:42.457Z,14.63
2018-08-25T03:26:10.854Z,14.60
2018-08-25T03:28:39.217Z,14.53
2018-08-25T03:31:07.617Z,14.36
2018-08-25T03:33:35.968Z,14.31
2018-08-25T03:36:04.365Z,14.23
2018-08-25T03:38:32.760Z,14.14
2018-08-25T03:41:01.154Z,14.09
2018-08-25T03:43:29.507Z,14.02
2018-08-25T03:45:57.933Z,13.98
2018-08-25T03:48:26.285Z,14.02
2018-08-25T03:50:54.694Z,13.99
2018-08-25T03:53:23.041Z,13.89
2018-08-25T03:55:51.457Z,13.81
2018-08-25T03:58:19.862Z,13.74
2018-08-25T04:00:48.281Z,13.69
2018-08-25T04:03:16.714Z,13.72
2018-08-25T04:05:45.188Z,13.69
2018-08-25T04:08:13.625Z,13.66
2018-08-25T04:10:42.100Z,13.67
2018-08-25T04:13:10.573Z,13.69
2018-08-25T04:15:38.979Z,13.75
2018-08-25T04:18:07.398Z,13.75
2018-08-25T04:20:35.818Z,13.70
2018-08-25T04:23:04.262Z,13.71
2018-08-25T04:25:32.665Z,13.72
2018-08-25T04:28:01.088Z,13.75
2018-08-25T04:30:29.517Z,13.79
2018-08-25T04:32:57.963Z,13.81
2018-08-25T04:35:26.341Z,13.79
2018-08-25T04:37:54.735Z,13.72
2018-08-25T04:40:23.143Z,13.73
2018-08-25T04:42:51.611Z,13.66
2018-08-25T04:45:20.001Z,13.63
2018-08-25T04:47:48.406Z,13.58
2018-08-25T04:50:16.782Z,13.62
2018-08-25T04:52:45.206Z,13.64
2018-08-25T04:55:13.581Z,13.61
2018-08-25T04:57:41.981Z,13.60
2018-08-25T05:00:10.381Z,13.50
2018-08-25T05:02:38.748Z,13.39
2018-08-25T05:05:07.093Z,13.18
2018-08-25T05:07:35.518Z,12.98
2018-08-25T05:10:04.177Z,12.81
2018-08-25T05:12:32.575Z,12.80
2018-08-25T05:15:00.958Z,12.77
2018-08-25T05:17:29.393Z,12.78
2018-08-25T05:19:57.779Z,12.80
2018-08-25T05:22:26.175Z,12.80
2018-08-25T05:24:54.609Z,12.78
2018-08-25T05:27:23.014Z,12.85
2018-08-25T05:29:51.473Z,12.87
2018-08-25T05:32:19.850Z,12.86
2018-08-25T05:34:48.206Z,12.83
2018-08-25T05:37:16.593Z,12.77
2018-08-25T05:39:44.949Z,12.74
2018-08-25T05:42:13.475Z,12.66
2018-08-25T05:44:41.838Z,12.69
2018-08-25T05:47:10.215Z,12.56
2018-08-25T05:49:38.584Z,12.52
2018-08-25T05:52:07.046Z,12.42
2018-08-25T05:54:35.424Z,12.37
2018-08-25T05:57:03.849Z,12.39
2018-08-25T05:59:32.224Z,12.38
2018-08-25T06:02:00.604Z,12.43
2018-08-25T06:04:28.976Z,12.39
2018-08-25T06:06:57.397Z,12.47
2018-08-25T06:09:25.773Z,12.47
2018-08-25T06:11:54.178Z,12.42
2018-08-25T06:14:22.574Z,12.43
2018-08-25T06:16:50.921Z,12.33
2018-08-25T06:19:19.404Z,12.32
2018-08-25T06:21:47.706Z,12.36
2018-08-25T06:24:16.090Z,12.37
2018-08-25T06:26:44.465Z,12.45
2018-08-25T06:29:12.879Z,12.52
2018-08-25T06:31:41.293Z,12.60
2018-08-25T06:34:09.749Z,12.59
2018-08-25T06:36:38.206Z,12.59
2018-08-25T06:39:08.347Z,12.63
2018-08-25T06:41:36.749Z,12.65
2018-08-25T06:44:05.214Z,12.76
2018-08-25T06:46:33.577Z,12.90
2018-08-25T06:49:02.026Z,13.10
2018-08-25T06:51:30.390Z,13.13
2018-08-25T06:53:58.834Z,13.03
2018-08-25T06:56:27.231Z,13.07
2018-08-25T06:58:55.621Z,13.12
2018-08-25T07:01:24.015Z,13.01
2018-08-25T07:03:52.467Z,12.66
2018-08-25T07:06:20.869Z,12.81
2018-08-25T07:08:49.237Z,12.88
2018-08-25T07:11:17.603Z,13.01
2018-08-25T07:13:45.982Z,12.96
2018-08-25T07:16:14.358Z,13.18
2018-08-25T07:18:42.812Z,13.32
2018-08-25T07:21:11.202Z,13.54
2018-08-25T07:23:39.569Z,13.77
2018-08-25T07:26:08.024Z,13.92
2018-08-25T07:28:36.437Z,14.15
2018-08-25T07:31:04.839Z,14.07
2018-08-25T07:33:33.230Z,13.93
2018-08-25T07:36:01.644Z,13.83
2018-08-25T07:38:30.047Z,13.91
2018-08-25T07:40:58.430Z,13.94
2018-08-25T07:43:26.852Z,14.05
2018-08-25T07:45:55.216Z,14.07
2018-08-25T07:48:23.606Z,14.23
2018-08-25T07:50:52.147Z,14.36
2018-08-25T07:53:20.505Z,14.36
2018-08-25T07:55:48.872Z,14.45
2018-08-25T07:58:17.256Z,14.22
2018-08-25T08:00:45.637Z,14.35
2018-08-25T08:03:14.038Z,14.44
2018-08-25T08:05:42.459Z,14.63
2018-08-25T08:08:10.833Z,14.72
2018-08-25T08:10:39.209Z,14.56
2018-08-25T08:13:07.615Z,14.62
2018-08-25T08:15:35.990Z,14.75
2018-08-25T08:18:04.391Z,14.75
2018-08-25T08:20:32.753Z,14.86
2018-08-25T08:23:01.101Z,15.45
2018-08-25T08:25:29.501Z,14.97
2018-08-25T08:27:57.853Z,14.85
2018-08-25T08:30:26.265Z,14.86
2018-08-25T08:32:54.772Z,14.81
2018-08-25T08:35:23.157Z,14.86
2018-08-25T08:37:51.501Z,14.84
2018-08-25T08:40:19.924Z,14.89
2018-08-25T08:42:48.290Z,14.75
2018-08-25T08:45:16.772Z,14.87
2018-08-25T08:47:45.094Z,14.77
2018-08-25T08:50:13.542Z,14.84
2018-08-25T08:52:41.876Z,15.03
2018-08-25T08:55:10.341Z,15.39
2018-08-25T08:57:38.941Z,15.36
2018-08-25T09:00:12.844Z,15.28
2018-08-25T09:02:41.222Z,15.36
2018-08-25T09:05:09.673Z,15.57
2018-08-25T09:07:38.018Z,15.39
2018-08-25T09:10:06.449Z,15.68
2018-08-25T09:12:35.095Z,15.96
2018-08-25T09:15:03.491Z,15.98
2018-08-25T09:17:31.928Z,15.77
2018-08-25T09:20:00.301Z,15.71
2018-08-25T09:22:28.649Z,15.46
2018-08-25T09:24:57.062Z,15.79
2018-08-25T09:27:25.826Z,15.94
2018-08-25T09:29:54.441Z,16.02
2018-08-25T09:32:22.867Z,15.81
2018-08-25T09:34:51.358Z,15.95
2018-08-25T09:37:19.707Z,15.68
2018-08-25T09:39:48.084Z,15.45
2018-08-25T09:42:16.520Z,15.65
2018-08-25T09:44:44.900Z,15.78
2018-08-25T09:47:13.278Z,15.57
2018-08-25T09:49:41.670Z,15.54
2018-08-25T09:52:10.042Z,15.47
2018-08-25T09:54:38.481Z,15.24
2018-08-25T09:57:06.909Z,15.16
2018-08-25T09:59:35.339Z,14.93
2018-08-25T10:02:07.069Z,14.84
2018-08-25T10:04:35.513Z,14.48
2018-08-25T10:07:03.962Z,14.04
2018-08-25T10:09:32.374Z,13.89
2018-08-25T10:12:00.865Z,13.75
2018-08-25T10:14:29.322Z,13.85
2018-08-25T10:16:57.868Z,14.02
2018-08-25T10:19:26.232Z,14.12
2018-08-25T10:21:54.681Z,14.10
2018-08-25T10:24:23.064Z,14.26
2018-08-25T10:26:51.469Z,14.22
2018-08-25T10:29:19.876Z,14.40
2018-08-25T10:31:48.288Z,14.68
2018-08-25T10:34:16.761Z,14.64
2018-08-25T10:36:45.178Z,15.07
2018-08-25T10:39:13.727Z,15.40
2018-08-25T10:41:42.472Z,15.76
2018-08-25T10:44:10.833Z,16.01
2018-08-25T10:46:39.989Z,16.17
2018-08-25T10:49:08.873Z,16.45
2018-08-25T10:51:37.642Z,16.91
2018-08-25T10:54:06.206Z,16.76
2018-08-25T10:56:34.630Z,16.71
2018-08-25T10:59:03.043Z,16.82
2018-08-25T11:01:31.551Z,17.08
2018-08-25T11:03:59.986Z,16.43
2018-08-25T11:06:28.420Z,16.37
2018-08-25T11:08:56.865Z,16.48
2018-08-25T11:11:25.498Z,16.52
2018-08-25T11:13:53.885Z,16.32
2018-08-25T11:16:22.324Z,16.11
2018-08-25T11:18:50.849Z,16.28
2018-08-25T11:21:19.286Z,15.95
2018-08-25T11:23:47.734Z,15.78
2018-08-25T11:26:16.115Z,15.78
2018-08-25T11:28:44.545Z,15.83
2018-08-25T11:31:12.961Z,15.98
2018-08-25T11:33:41.382Z,16.10
2018-08-25T11:36:09.853Z,16.35
2018-08-25T11:38:38.326Z,16.91
2018-08-25T11:41:06.762Z,17.03
2018-08-25T11:43:35.198Z,16.93
2018-08-25T11:46:03.641Z,17.15
2018-08-25T11:48:32.042Z,17.32
2018-08-25T11:51:00.457Z,17.47
2018-08-25T11:53:28.861Z,17.68
2018-08-25T11:55:57.336Z,17.79
2018-08-25T11:58:25.696Z,17.62
2018-08-25T12:00:54.193Z,17.30
2018-08-25T12:03:23.434Z,17.36
2018-08-25T12:05:51.846Z,16.99
2018-08-25T12:08:20.214Z,17.26
2018-08-25T12:10:48.603Z,17.58
2018-08-25T12:13:16.970Z,17.52
2018-08-25T12:15:45.357Z,17.34
2018-08-25T12:18:13.730Z,17.48
2018-08-25T12:20:42.138Z,17.90
2018-08-25T12:23:10.567Z,18.25
2018-08-25T12:25:38.981Z,18.10
2018-08-25T12:28:07.370Z,17.95
2018-08-25T12:30:35.749Z,18.12
2018-08-25T12:33:04.170Z,17.72
2018-08-25T12:35:32.571Z,17.97
2018-08-25T12:38:00.953Z,18.13
2018-08-25T12:40:29.321Z,18.46
2018-08-25T12:42:57.748Z,18.47
2018-08-25T12:45:26.132Z,18.25
2018-08-25T12:47:54.550Z,17.78
2018-08-25T12:50:22.919Z,17.72
2018-08-25T12:52:51.297Z,17.46
2018-08-25T12:55:19.694Z,17.58
2018-08-25T12:57:48.178Z,17.17
2018-08-25T13:00:16.545Z,16.87
2018-08-25T13:02:44.969Z,16.77
2018-08-25T13:05:13.317Z,16.96
2018-08-25T13:07:41.889Z,16.95
2018-08-25T13:10:10.307Z,17.12
2018-08-25T13:12:38.706Z,17.32
2018-08-25T13:15:07.725Z,17.39
2018-08-25T13:17:36.117Z,17.66
2018-08-25T13:20:04.699Z,17.50
2018-08-25T13:22:33.070Z,17.51
2018-08-25T13:25:01.519Z,17.86
2018-08-25T13:27:29.906Z,17.94
2018-08-25T13:29:58.265Z,17.98
2018-08-25T13:32:26.694Z,17.77
2018-08-25T13:34:55.088Z,17.90
2018-08-25T13:37:23.827Z,18.14
2018-08-25T13:39:52.277Z,18.06
2018-08-25T13:42:20.710Z,18.28
2018-08-25T13:44:49.102Z,18.15
2018-08-25T13:47:17.482Z,18.64
2018-08-25T13:49:45.882Z,18.90
2018-08-25T13:52:17.433Z,18.77
2018-08-25T13:54:45.894Z,18.66
2018-08-25T13:57:14.338Z,18.61
2018-08-25T13:59:42.906Z,18.51
2018-08-25T14:02:11.983Z,18.30
2018-08-25T14:04:40.369Z,18.13
2018-08-25T14:07:08.809Z,17.91
2018-08-25T14:09:37.241Z,17.88
2018-08-25T14:12:05.672Z,17.83
2018-08-25T14:14:34.133Z,17.76
2018-08-25T14:17:02.573Z,17.15
2018-08-25T14:19:31.006Z,16.59
2018-08-25T14:21:59.421Z,16.37
2018-08-25T14:24:27.829Z,16.27
2018-08-25T14:26:56.265Z,16.27
2018-08-25T14:29:24.689Z,16.18
2018-08-25T14:31:53.101Z,14.71
2018-08-25T14:34:23.013Z,13.95
2018-08-25T14:36:51.461Z,13.43
2018-08-25T14:39:19.890Z,13.16
2018-08-25T14:41:48.412Z,13.18
2018-08-25T14:44:16.771Z,13.24
2018-08-25T14:46:45.153Z,13.42
2018-08-25T14:49:13.573Z,13.57
2018-08-25T14:51:41.977Z,13.59
2018-08-25T14:54:10.409Z,13.70
2018-08-25T14:56:40.517Z,13.92
2018-08-25T14:59:08.914Z,14.23
2018-08-25T15:01:37.301Z,14.43
2018-08-25T15:04:05.702Z,15.27
2018-08-25T15:06:34.116Z,15.32
2018-08-25T15:09:02.494Z,14.92
2018-08-25T15:11:30.846Z,14.67
2018-08-25T15:13:59.269Z,14.56
2018-08-25T15:16:27.622Z,14.44
2018-08-25T15:18:56.043Z,14.40
2018-08-25T15:21:24.374Z,14.42
2018-08-25T15:23:52.762Z,14.53
2018-08-25T15:26:21.277Z,14.61
2018-08-25T15:28:49.645Z,14.53
2018-08-25T15:31:18.019Z,14.65
2018-08-25T15:33:46.443Z,14.75
2018-08-25T15:36:14.822Z,14.84
2018-08-25T15:38:43.233Z,15.09
2018-08-25T15:41:12.054Z,15.09
2018-08-25T15:43:40.482Z,15.26
2018-08-25T15:46:08.893Z,15.25
2018-08-25T15:48:37.302Z,14.88
2018-08-25T15:51:05.693Z,14.75
2018-08-25T15:53:34.074Z,14.68
2018-08-25T15:56:02.578Z,14.58
2018-08-25T15:58:31.038Z,14.55
2018-08-25T16:00:59.451Z,14.46
2018-08-25T16:03:27.898Z,14.36
2018-08-25T16:05:56.432Z,14.30
2018-08-25T16:08:25.125Z,14.10
2018-08-25T16:10:53.556Z,14.02
2018-08-25T16:13:22.895Z,14.07
2018-08-25T16:15:52.221Z,14.07
2018-08-25T16:18:20.709Z,14.09
2018-08-25T16:20:49.098Z,14.14
2018-08-25T16:23:17.545Z,14.37
2018-08-25T16:25:46.581Z,14.93
2018-08-25T16:28:15.037Z,15.24
2018-08-25T16:30:43.908Z,16.11
2018-08-25T16:33:12.337Z,16.43
2018-08-25T16:35:40.958Z,16.79
2018-08-25T16:38:09.418Z,16.96
2018-08-25T16:40:37.862Z,17.24
2018-08-25T16:43:06.314Z,17.23
2018-08-25T16:45:34.725Z,16.97
2018-08-25T16:48:03.149Z,16.04
2018-08-25T16:50:31.579Z,15.74
2018-08-25T16:53:00.023Z,15.54
2018-08-25T16:55:29.166Z,15.43
2018-08-25T16:57:57.621Z,15.38
2018-08-25T17:00:26.062Z,15.44
2018-08-25T17:02:54.667Z,15.40
2018-08-25T17:05:23.105Z,15.30
2018-08-25T17:07:54.643Z,15.30
2018-08-25T17:10:23.088Z,15.33
2018-08-25T17:12:51.709Z,15.36
2018-08-25T17:15:20.280Z,15.49
2018-08-25T17:17:48.550Z,15.51
2018-08-25T17:20:16.999Z,15.45
2018-08-25T17:22:45.459Z,15.42
2018-08-25T17:25:13.851Z,15.27
2018-08-25T17:27:42.342Z,15.26
2018-08-25T17:30:10.774Z,15.21
2018-08-25T17:32:39.281Z,15.13
2018-08-25T17:35:07.698Z,15.14
2018-08-25T17:37:36.094Z,15.09
2018-08-25T17:40:04.557Z,15.09
2018-08-25T17:42:32.934Z,15.03
2018-08-25T17:45:01.372Z,15.05
2018-08-25T17:47:29.745Z,15.00
2018-08-25T17:49:58.418Z,14.97
2018-08-25T17:52:26.933Z,15.01
2018-08-25T17:54:55.335Z,14.89
2018-08-25T17:57:23.858Z,14.73
2018-08-25T17:59:52.114Z,14.67
2018-08-25T18:05:29.573Z,14.51
2018-08-25T18:07:57.970Z,14.44
2018-08-25T18:10:29.402Z,14.45
2018-08-25T18:12:57.797Z,14.41
2018-08-25T18:15:26.198Z,14.23
2018-08-25T18:17:54.564Z,14.18
2018-08-25T18:20:22.938Z,14.19
2018-08-25T18:22:51.356Z,14.20
2018-08-25T18:25:19.791Z,14.16
2018-08-25T18:27:48.226Z,13.99
2018-08-25T18:30:16.699Z,14.03
2018-08-25T18:32:45.302Z,14.01
2018-08-25T18:35:13.904Z,13.94
2018-08-25T18:37:42.346Z,13.83
2018-08-25T18:40:10.820Z,13.75
2018-08-25T18:42:39.247Z,13.69
2018-08-25T18:45:07.917Z,13.64
2018-08-25T18:47:36.398Z,13.59
2018-08-25T18:50:05.081Z,13.55
2018-08-25T18:52:33.465Z,13.44
2018-08-25T18:55:01.899Z,13.40
2018-08-25T18:57:30.317Z,13.33
2018-08-25T18:59:58.726Z,13.23
2018-08-25T19:02:27.194Z,13.11
2018-08-25T19:04:59.069Z,13.00
2018-08-25T19:07:27.499Z,12.99
2018-08-25T19:09:55.913Z,12.95
2018-08-25T19:12:24.302Z,12.91
2018-08-25T19:14:52.758Z,12.94
2018-08-25T19:17:21.173Z,12.96
2018-08-25T19:19:49.604Z,12.95
2018-08-25T19:22:18.077Z,12.88
2018-08-25T19:24:46.501Z,12.90
2018-08-25T19:27:14.897Z,12.87
2018-08-25T19:29:43.338Z,12.81
2018-08-25T19:32:11.841Z,12.76
2018-08-25T19:34:49.157Z,12.73
2018-08-25T19:37:17.582Z,12.67
2018-08-25T19:39:46.024Z,12.64
2018-08-25T19:42:14.537Z,12.58
2018-08-25T19:44:42.962Z,12.52
2018-08-25T19:47:11.461Z,12.48
2018-08-25T19:49:39.816Z,12.39
2018-08-25T19:52:08.269Z,12.32
2018-08-25T19:54:36.654Z,12.27
2018-08-25T19:57:05.165Z,12.24
2018-08-25T19:59:33.514Z,12.20
2018-08-25T20:02:02.241Z,12.25
2018-08-25T20:04:30.653Z,12.21
2018-08-25T20:06:59.049Z,12.20
2018-08-25T20:09:28.303Z,12.17
2018-08-25T20:11:56.714Z,12.17
2018-08-25T20:14:26.298Z,12.15
2018-08-25T20:16:54.668Z,12.07
2018-08-25T20:19:23.031Z,11.99
2018-08-25T20:21:51.637Z,11.92
2018-08-25T20:24:20.012Z,11.83
2018-08-25T20:26:54.961Z,11.74
2018-08-25T20:29:23.340Z,11.70
2018-08-25T20:31:51.769Z,11.64
2018-08-25T20:34:20.137Z,11.62
2018-08-25T20:37:00.821Z,11.56
2018-08-25T20:39:29.188Z,11.54
2018-08-25T20:41:57.566Z,11.49
2018-08-25T20:44:25.939Z,11.42
2018-08-25T20:46:55.345Z,11.40
2018-08-25T20:49:23.721Z,11.38
2018-08-25T20:51:52.106Z,11.35
2018-08-25T20:54:20.486Z,11.39
2018-08-25T20:59:44.617Z,11.35
2018-08-25T21:02:12.994Z,11.40
2018-08-25T21:04:41.405Z,11.41
2018-08-25T21:07:09.854Z,11.40
2018-08-25T21:09:38.213Z,11.41
2018-08-25T21:12:06.662Z,11.47
2018-08-25T21:14:35.045Z,11.45
2018-08-25T21:17:03.528Z,11.46
2018-08-25T21:19:31.973Z,11.46
2018-08-25T21:22:00.325Z,11.46
2018-08-25T21:24:28.747Z,11.34
2018-08-25T21:26:57.116Z,11.11
2018-08-25T21:29:25.551Z,11.02
2018-08-25T21:31:54.973Z,10.92
2018-08-25T21:34:24.350Z,10.75
2018-08-25T21:37:02.588Z,10.69
2018-08-25T21:39:30.973Z,10.40
2018-08-25T21:42:10.219Z,10.22
2018-08-25T21:44:57.589Z,10.32
2018-08-25T21:47:26.038Z,10.21
2018-08-25T21:49:54.441Z,10.08
2018-08-25T21:52:22.797Z,10.07
2018-08-25T21:54:51.244Z,10.04
2018-08-25T21:57:19.649Z,10.04
2018-08-25T21:59:48.057Z,9.99
2018-08-25T22:02:17.314Z,10.03
2018-08-25T22:04:45.905Z,9.98
2018-08-25T22:07:14.338Z,9.94
2018-08-25T22:09:42.788Z,9.90
2018-08-25T22:12:11.270Z,9.91
2018-08-25T22:14:39.864Z,9.89
2018-08-25T22:17:08.345Z,9.85
2018-08-25T22:19:36.757Z,9.90
2018-08-25T22:22:05.181Z,9.86
2018-08-25T22:24:33.737Z,9.81
2018-08-25T22:27:02.163Z,9.79
2018-08-25T22:29:30.575Z,9.72
2018-08-25T22:31:59.023Z,9.63
2018-08-25T22:34:27.441Z,9.56
2018-08-25T22:36:55.851Z,9.56
2018-08-25T22:39:24.282Z,9.60
2018-08-25T22:41:52.674Z,9.49
2018-08-25T22:44:21.162Z,9.52
2018-08-25T22:46:49.579Z,9.48
2018-08-25T22:49:17.998Z,9.48
2018-08-25T22:51:46.406Z,9.51
2018-08-25T22:54:14.918Z,9.48
2018-08-25T22:56:43.357Z,9.39
2018-08-25T22:59:11.845Z,9.28
2018-08-25T23:01:40.295Z,9.23
2018-08-25T23:04:08.862Z,9.14
2018-08-25T23:06:37.256Z,9.07
2018-08-25T23:09:07.758Z,9.16
2018-08-25T23:11:36.218Z,9.05
2018-08-25T23:14:04.694Z,9.10
2018-08-25T23:16:33.149Z,9.08
2018-08-25T23:19:01.612Z,9.11
2018-08-25T23:21:30.134Z,9.07
2018-08-25T23:23:58.806Z,9.11
2018-08-25T23:26:27.281Z,9.09
2018-08-25T23:28:55.673Z,9.06
2018-08-25T23:31:24.083Z,9.05
2018-08-25T23:33:52.478Z,8.94
2018-08-25T23:36:20.923Z,8.85
2018-08-25T23:38:49.344Z,8.78
2018-08-25T23:41:17.825Z,8.78
2018-08-25T23:43:46.215Z,8.78
2018-08-25T23:46:14.613Z,8.70
2018-08-25T23:48:43.013Z,8.69
2018-08-25T23:51:11.408Z,8.75
2018-08-25T23:53:39.938Z,8.78
2018-08-25T23:56:08.390Z,8.74
2018-08-25T23:58:36.797Z,8.78
